sensor_id;sensor_type;location;lat;lon;timestamp;pressure;altitude;pressure_sealevel;temperature;humidity
69855;BME280;57146;48.140;16.304;2023-06-04T00:01:35;99486.97;;;15.80;51.16
69855;BME280;57146;48.140;16.304;2023-06-04T00:04:02;99477.88;;;15.69;50.77
69855;BME280;57146;48.140;16.304;2023-06-04T00:06:31;99481.56;;;15.76;51.68
69855;BME280;57146;48.140;16.304;2023-06-04T00:08:58;99481.34;;;15.61;51.29
69855;BME280;57146;48.140;16.304;2023-06-04T00:11:25;99484.47;;;15.63;51.66
69855;BME280;57146;48.140;16.304;2023-06-04T00:13:52;99477.03;;;15.56;51.93
69855;BME280;57146;48.140;16.304;2023-06-04T00:16:19;99472.47;;;15.44;52.13
69855;BME280;57146;48.140;16.304;2023-06-04T00:18:46;99471.56;;;15.40;51.70
69855;BME280;57146;48.140;16.304;2023-06-04T00:21:15;99474.22;;;15.40;52.00
69855;BME280;57146;48.140;16.304;2023-06-04T00:23:42;99474.66;;;15.42;51.83
69855;BME280;57146;48.140;16.304;2023-06-04T00:26:10;99474.22;;;15.40;52.32
69855;BME280;57146;48.140;16.304;2023-06-04T00:28:40;99478.22;;;15.46;52.19
69855;BME280;57146;48.140;16.304;2023-06-04T00:31:08;99477.06;;;15.35;51.96
69855;BME280;57146;48.140;16.304;2023-06-04T00:33:36;99473.00;;;15.38;52.25
69855;BME280;57146;48.140;16.304;2023-06-04T00:36:03;99461.69;;;15.28;52.60
69855;BME280;57146;48.140;16.304;2023-06-04T00:38:31;99464.09;;;15.21;53.27
69855;BME280;57146;48.140;16.304;2023-06-04T00:41:23;99462.03;;;15.06;53.54
69855;BME280;57146;48.140;16.304;2023-06-04T00:43:52;99466.94;;;14.95;53.74
69855;BME280;57146;48.140;16.304;2023-06-04T00:46:19;99463.19;;;14.96;53.81
69855;BME280;57146;48.140;16.304;2023-06-04T00:48:46;99460.41;;;14.93;53.98
69855;BME280;57146;48.140;16.304;2023-06-04T00:51:13;99468.06;;;14.94;53.80
69855;BME280;57146;48.140;16.304;2023-06-04T00:53:40;99469.78;;;14.90;53.88
69855;BME280;57146;48.140;16.304;2023-06-04T00:56:07;99464.81;;;14.89;54.67
69855;BME280;57146;48.140;16.304;2023-06-04T00:58:39;99463.97;;;14.76;55.41
69855;BME280;57146;48.140;16.304;2023-06-04T01:01:18;99461.25;;;14.64;56.02
69855;BME280;57146;48.140;16.304;2023-06-04T01:03:54;99470.50;;;14.49;56.48
69855;BME280;57146;48.140;16.304;2023-06-04T01:06:30;99464.78;;;14.38;56.15
69855;BME280;57146;48.140;16.304;2023-06-04T01:08:59;99459.66;;;14.33;56.38
69855;BME280;57146;48.140;16.304;2023-06-04T01:11:39;99466.84;;;14.32;55.99
69855;BME280;57146;48.140;16.304;2023-06-04T01:14:11;99461.88;;;14.31;55.96
69855;BME280;57146;48.140;16.304;2023-06-04T01:16:56;99459.66;;;14.33;55.69
69855;BME280;57146;48.140;16.304;2023-06-04T01:22:11;99457.78;;;14.33;56.90
69855;BME280;57146;48.140;16.304;2023-06-04T01:24:52;99457.50;;;14.26;56.83
69855;BME280;57146;48.140;16.304;2023-06-04T01:27:21;99453.50;;;14.20;56.74
69855;BME280;57146;48.140;16.304;2023-06-04T01:29:48;99452.41;;;14.21;57.03
69855;BME280;57146;48.140;16.304;2023-06-04T01:32:17;99456.19;;;14.11;56.92
69855;BME280;57146;48.140;16.304;2023-06-04T01:34:45;99456.97;;;14.12;57.74
69855;BME280;57146;48.140;16.304;2023-06-04T01:37:14;99460.72;;;14.11;56.70
69855;BME280;57146;48.140;16.304;2023-06-04T01:39:42;99449.47;;;14.14;57.05
69855;BME280;57146;48.140;16.304;2023-06-04T01:42:09;99452.75;;;14.11;57.05
69855;BME280;57146;48.140;16.304;2023-06-04T01:44:38;99454.97;;;14.09;57.18
69855;BME280;57146;48.140;16.304;2023-06-04T01:47:05;99444.38;;;14.09;57.77
69855;BME280;57146;48.140;16.304;2023-06-04T01:49:34;99449.69;;;14.00;58.65
69855;BME280;57146;48.140;16.304;2023-06-04T01:52:01;99444.88;;;13.94;58.28
69855;BME280;57146;48.140;16.304;2023-06-04T01:54:28;99451.91;;;13.89;58.80
69855;BME280;57146;48.140;16.304;2023-06-04T01:56:54;99455.03;;;13.83;58.83
69855;BME280;57146;48.140;16.304;2023-06-04T01:59:23;99454.13;;;13.79;58.98
69855;BME280;57146;48.140;16.304;2023-06-04T02:01:50;99458.03;;;13.73;58.29
69855;BME280;57146;48.140;16.304;2023-06-04T02:04:17;99460.22;;;13.71;58.74
69855;BME280;57146;48.140;16.304;2023-06-04T02:06:44;99451.81;;;13.77;58.68
69855;BME280;57146;48.140;16.304;2023-06-04T02:09:11;99458.78;;;13.82;58.52
69855;BME280;57146;48.140;16.304;2023-06-04T02:11:38;99454.75;;;13.76;58.43
69855;BME280;57146;48.140;16.304;2023-06-04T02:14:05;99462.25;;;13.74;59.98
69855;BME280;57146;48.140;16.304;2023-06-04T02:16:32;99457.25;;;13.72;59.71
69855;BME280;57146;48.140;16.304;2023-06-04T02:18:59;99454.16;;;13.70;59.11
69855;BME280;57146;48.140;16.304;2023-06-04T02:21:26;99463.81;;;13.66;59.10
69855;BME280;57146;48.140;16.304;2023-06-04T02:23:53;99465.03;;;13.69;59.49
69855;BME280;57146;48.140;16.304;2023-06-04T02:26:20;99462.38;;;13.77;60.08
69855;BME280;57146;48.140;16.304;2023-06-04T02:28:48;99461.91;;;13.75;59.62
69855;BME280;57146;48.140;16.304;2023-06-04T02:31:15;99450.06;;;13.81;59.92
69855;BME280;57146;48.140;16.304;2023-06-04T02:33:42;99458.94;;;13.85;59.37
69855;BME280;57146;48.140;16.304;2023-06-04T02:36:09;99454.56;;;13.89;58.86
69855;BME280;57146;48.140;16.304;2023-06-04T02:38:37;99450.81;;;13.90;59.12
69855;BME280;57146;48.140;16.304;2023-06-04T02:41:04;99451.44;;;13.96;59.56
69855;BME280;57146;48.140;16.304;2023-06-04T02:43:32;99456.72;;;13.96;59.76
69855;BME280;57146;48.140;16.304;2023-06-04T02:45:59;99447.69;;;13.97;59.68
69855;BME280;57146;48.140;16.304;2023-06-04T02:48:28;99452.34;;;14.00;58.80
69855;BME280;57146;48.140;16.304;2023-06-04T02:50:55;99444.09;;;14.02;59.82
69855;BME280;57146;48.140;16.304;2023-06-04T02:53:22;99453.22;;;14.13;59.41
69855;BME280;57146;48.140;16.304;2023-06-04T02:56:16;99454.00;;;14.13;59.61
69855;BME280;57146;48.140;16.304;2023-06-04T02:58:54;99457.75;;;14.12;59.15
69855;BME280;57146;48.140;16.304;2023-06-04T03:01:26;99455.75;;;14.09;58.92
69855;BME280;57146;48.140;16.304;2023-06-04T03:03:55;99456.81;;;14.08;58.94
69855;BME280;57146;48.140;16.304;2023-06-04T03:06:23;99462.78;;;14.05;58.46
69855;BME280;57146;48.140;16.304;2023-06-04T03:08:52;99461.81;;;14.10;58.92
69855;BME280;57146;48.140;16.304;2023-06-04T03:11:19;99463.97;;;14.17;59.24
69855;BME280;57146;48.140;16.304;2023-06-04T03:13:48;99466.75;;;14.20;59.19
69855;BME280;57146;48.140;16.304;2023-06-04T03:16:16;99470.31;;;14.24;59.05
69855;BME280;57146;48.140;16.304;2023-06-04T03:18:44;99469.53;;;14.24;58.58
69855;BME280;57146;48.140;16.304;2023-06-04T03:21:11;99468.75;;;14.23;58.68
69855;BME280;57146;48.140;16.304;2023-06-04T03:23:40;99468.75;;;14.23;59.09
69855;BME280;57146;48.140;16.304;2023-06-04T03:26:07;99464.25;;;14.24;58.47
69855;BME280;57146;48.140;16.304;2023-06-04T03:28:35;99464.25;;;14.24;58.28
69855;BME280;57146;48.140;16.304;2023-06-04T03:31:04;99470.59;;;14.23;58.33
69855;BME280;57146;48.140;16.304;2023-06-04T03:33:32;99468.28;;;14.21;57.83
69855;BME280;57146;48.140;16.304;2023-06-04T03:36:01;99477.00;;;14.22;58.33
69855;BME280;57146;48.140;16.304;2023-06-04T03:38:34;99474.84;;;14.24;58.26
69855;BME280;57146;48.140;16.304;2023-06-04T03:41:02;99480.75;;;14.21;58.38
69855;BME280;57146;48.140;16.304;2023-06-04T03:43:29;99479.66;;;14.22;58.34
69855;BME280;57146;48.140;16.304;2023-06-04T03:46:00;99487.44;;;14.27;58.90
69855;BME280;57146;48.140;16.304;2023-06-04T03:48:28;99480.91;;;14.24;58.31
69855;BME280;57146;48.140;16.304;2023-06-04T03:50:56;99475.13;;;14.22;58.52
69855;BME280;57146;48.140;16.304;2023-06-04T03:53:24;99480.91;;;14.24;58.59
69855;BME280;57146;48.140;16.304;2023-06-04T03:55:51;99487.88;;;14.29;58.71
69855;BME280;57146;48.140;16.304;2023-06-04T03:58:18;99491.44;;;14.33;58.70
69855;BME280;57146;48.140;16.304;2023-06-04T04:00:49;99491.28;;;14.38;58.88
69855;BME280;57146;48.140;16.304;2023-06-04T04:03:18;99479.91;;;14.37;58.89
69855;BME280;57146;48.140;16.304;2023-06-04T04:05:47;99489.69;;;14.37;58.76
69855;BME280;57146;48.140;16.304;2023-06-04T04:08:14;99492.06;;;14.38;58.86
69855;BME280;57146;48.140;16.304;2023-06-04T04:10:43;99499.50;;;14.45;58.93
69855;BME280;57146;48.140;16.304;2023-06-04T04:13:11;99491.56;;;14.45;58.95
69855;BME280;57146;48.140;16.304;2023-06-04T04:15:40;99494.97;;;14.46;59.08
69855;BME280;57146;48.140;16.304;2023-06-04T04:18:07;99493.09;;;14.46;59.15
69855;BME280;57146;48.140;16.304;2023-06-04T04:20:36;99499.16;;;14.47;58.79
69855;BME280;57146;48.140;16.304;2023-06-04T04:23:11;99504.13;;;14.57;59.41
69855;BME280;57146;48.140;16.304;2023-06-04T04:26:02;99500.50;;;14.61;59.24
69855;BME280;57146;48.140;16.304;2023-06-04T04:28:30;99512.69;;;14.63;59.74
69855;BME280;57146;48.140;16.304;2023-06-04T04:31:02;99507.06;;;14.64;59.69
69855;BME280;57146;48.140;16.304;2023-06-04T04:33:36;99506.59;;;14.62;59.73
69855;BME280;57146;48.140;16.304;2023-06-04T04:36:04;99507.56;;;14.57;60.02
69855;BME280;57146;48.140;16.304;2023-06-04T04:38:31;99500.25;;;14.54;59.04
69855;BME280;57146;48.140;16.304;2023-06-04T04:41:02;99506.59;;;14.62;60.36
69855;BME280;57146;48.140;16.304;2023-06-04T04:43:33;99502.91;;;14.54;60.10
69855;BME280;57146;48.140;16.304;2023-06-04T04:46:15;99512.72;;;14.54;58.97
69855;BME280;57146;48.140;16.304;2023-06-04T04:48:42;99514.53;;;14.62;59.87
69855;BME280;57146;48.140;16.304;2023-06-04T04:51:10;99511.38;;;14.69;59.74
69855;BME280;57146;48.140;16.304;2023-06-04T04:53:37;99512.06;;;14.66;59.06
69855;BME280;57146;48.140;16.304;2023-06-04T04:56:05;99510.81;;;14.63;59.30
69855;BME280;57146;48.140;16.304;2023-06-04T04:58:37;99511.84;;;14.71;60.24
69855;BME280;57146;48.140;16.304;2023-06-04T05:01:06;99514.03;;;14.69;59.57
69855;BME280;57146;48.140;16.304;2023-06-04T05:03:37;99513.72;;;14.70;59.49
69855;BME280;57146;48.140;16.304;2023-06-04T05:06:04;99520.72;;;14.75;59.84
69855;BME280;57146;48.140;16.304;2023-06-04T05:08:32;99520.72;;;14.75;59.81
69855;BME280;57146;48.140;16.304;2023-06-04T05:10:59;99518.69;;;14.72;59.07
69855;BME280;57146;48.140;16.304;2023-06-04T05:13:28;99528.34;;;14.76;59.30
69855;BME280;57146;48.140;16.304;2023-06-04T05:16:01;99528.50;;;14.80;59.35
69855;BME280;57146;48.140;16.304;2023-06-04T05:18:28;99527.06;;;14.82;59.21
69855;BME280;57146;48.140;16.304;2023-06-04T05:20:59;99535.47;;;14.84;59.00
69855;BME280;57146;48.140;16.304;2023-06-04T05:23:31;99538.13;;;14.84;58.65
69855;BME280;57146;48.140;16.304;2023-06-04T05:25:58;99534.50;;;14.89;59.41
69855;BME280;57146;48.140;16.304;2023-06-04T05:28:25;99545.84;;;14.98;59.18
69855;BME280;57146;48.140;16.304;2023-06-04T05:30:52;99539.44;;;14.99;59.01
69855;BME280;57146;48.140;16.304;2023-06-04T05:33:19;99545.69;;;14.95;59.03
69855;BME280;57146;48.140;16.304;2023-06-04T05:36:11;99546.22;;;14.88;60.03
69855;BME280;57146;48.140;16.304;2023-06-04T05:38:50;99542.19;;;14.82;59.29
69855;BME280;57146;48.140;16.304;2023-06-04T05:41:18;99549.34;;;14.81;59.32
69855;BME280;57146;48.140;16.304;2023-06-04T05:43:46;99545.44;;;14.88;60.23
69855;BME280;57146;48.140;16.304;2023-06-04T05:46:15;99551.78;;;14.95;59.44
69855;BME280;57146;48.140;16.304;2023-06-04T05:48:47;99554.06;;;15.05;59.22
69855;BME280;57146;48.140;16.304;2023-06-04T05:51:14;99561.69;;;15.07;60.56
69855;BME280;57146;48.140;16.304;2023-06-04T05:53:42;99564.47;;;15.11;60.52
69855;BME280;57146;48.140;16.304;2023-06-04T05:56:09;99562.91;;;15.09;59.55
69855;BME280;57146;48.140;16.304;2023-06-04T05:58:37;99566.47;;;15.14;59.21
69855;BME280;57146;48.140;16.304;2023-06-04T06:01:05;99563.63;;;15.19;59.44
69855;BME280;57146;48.140;16.304;2023-06-04T06:03:58;99568.88;;;15.27;59.34
69855;BME280;57146;48.140;16.304;2023-06-04T06:06:35;99571.44;;;15.36;59.36
69855;BME280;57146;48.140;16.304;2023-06-04T06:09:02;99568.50;;;15.38;58.90
69855;BME280;57146;48.140;16.304;2023-06-04T06:11:30;99572.34;;;15.40;59.00
69855;BME280;57146;48.140;16.304;2023-06-04T06:13:57;99568.78;;;15.36;59.08
69855;BME280;57146;48.140;16.304;2023-06-04T06:16:24;99578.75;;;15.39;59.16
69855;BME280;57146;48.140;16.304;2023-06-04T06:18:52;99574.22;;;15.40;59.06
69855;BME280;57146;48.140;16.304;2023-06-04T06:21:21;99575.53;;;15.33;59.10
69855;BME280;57146;48.140;16.304;2023-06-04T06:23:51;99581.41;;;15.39;59.77
69855;BME280;57146;48.140;16.304;2023-06-04T06:26:18;99578.75;;;15.39;59.45
69855;BME280;57146;48.140;16.304;2023-06-04T06:28:54;99582.06;;;15.36;59.26
69855;BME280;57146;48.140;16.304;2023-06-04T06:31:22;99575.34;;;15.39;59.03
69855;BME280;57146;48.140;16.304;2023-06-04T06:33:50;99581.28;;;15.36;58.70
69855;BME280;57146;48.140;16.304;2023-06-04T06:36:17;99578.31;;;15.37;59.05
69855;BME280;57146;48.140;16.304;2023-06-04T06:38:44;99580.00;;;15.42;58.75
69855;BME280;57146;48.140;16.304;2023-06-04T06:41:12;99580.78;;;15.42;59.39
69855;BME280;57146;48.140;16.304;2023-06-04T06:43:39;99585.81;;;15.35;59.33
69855;BME280;57146;48.140;16.304;2023-06-04T06:46:06;99579.53;;;15.40;59.27
69855;BME280;57146;48.140;16.304;2023-06-04T06:48:33;99584.28;;;15.34;59.64
69855;BME280;57146;48.140;16.304;2023-06-04T06:51:01;99587.06;;;15.38;59.16
69855;BME280;57146;48.140;16.304;2023-06-04T06:53:28;99590.91;;;15.40;59.35
69855;BME280;57146;48.140;16.304;2023-06-04T06:55:56;99593.56;;;15.40;59.07
69855;BME280;57146;48.140;16.304;2023-06-04T06:58:29;99589.84;;;15.41;59.16
69855;BME280;57146;48.140;16.304;2023-06-04T07:00:56;99594.50;;;15.44;59.13
69855;BME280;57146;48.140;16.304;2023-06-04T07:03:24;99586.22;;;15.46;59.19
69855;BME280;57146;48.140;16.304;2023-06-04T07:05:53;99602.25;;;15.49;59.14
69855;BME280;57146;48.140;16.304;2023-06-04T07:08:20;99591.00;;;15.52;59.21
69855;BME280;57146;48.140;16.304;2023-06-04T07:10:47;99600.97;;;15.55;59.54
69855;BME280;57146;48.140;16.304;2023-06-04T07:13:18;99602.03;;;15.54;59.39
69855;BME280;57146;48.140;16.304;2023-06-04T07:15:45;99595.19;;;15.53;59.27
69855;BME280;57146;48.140;16.304;2023-06-04T07:18:14;99596.22;;;15.61;58.99
69855;BME280;57146;48.140;16.304;2023-06-04T07:20:41;99594.81;;;15.64;59.05
69855;BME280;57146;48.140;16.304;2023-06-04T07:23:09;99595.31;;;15.66;58.92
69855;BME280;57146;48.140;16.304;2023-06-04T07:25:37;99588.47;;;15.77;58.95
69855;BME280;57146;48.140;16.304;2023-06-04T07:28:04;99583.19;;;15.77;59.58
69855;BME280;57146;48.140;16.304;2023-06-04T07:30:31;99590.50;;;15.80;58.94
69855;BME280;57146;48.140;16.304;2023-06-04T07:32:58;99584.53;;;15.83;59.21
69855;BME280;57146;48.140;16.304;2023-06-04T07:35:50;99586.84;;;15.85;58.76
69855;BME280;57146;48.140;16.304;2023-06-04T07:38:20;99589.16;;;15.86;59.25
69855;BME280;57146;48.140;16.304;2023-06-04T07:40:47;99599.47;;;15.88;58.89
69855;BME280;57146;48.140;16.304;2023-06-04T07:43:14;99590.75;;;15.87;58.70
69855;BME280;57146;48.140;16.304;2023-06-04T07:45:40;99596.94;;;15.91;58.89
69855;BME280;57146;48.140;16.304;2023-06-04T07:48:11;99595.66;;;15.97;59.04
69855;BME280;57146;48.140;16.304;2023-06-04T07:50:38;99595.75;;;16.01;59.13
69855;BME280;57146;48.140;16.304;2023-06-04T07:53:08;99597.56;;;16.09;58.95
69855;BME280;57146;48.140;16.304;2023-06-04T07:55:35;99601.09;;;16.13;58.64
69855;BME280;57146;48.140;16.304;2023-06-04T07:58:02;99601.88;;;16.14;59.13
69855;BME280;57146;48.140;16.304;2023-06-04T08:00:33;99613.38;;;16.18;59.59
69855;BME280;57146;48.140;16.304;2023-06-04T08:03:01;99606.13;;;16.27;58.52
69855;BME280;57146;48.140;16.304;2023-06-04T08:05:30;99607.53;;;16.24;59.01
69855;BME280;57146;48.140;16.304;2023-06-04T08:07:58;99606.53;;;16.29;59.24
69855;BME280;57146;48.140;16.304;2023-06-04T08:10:24;99606.44;;;16.25;58.68
69855;BME280;57146;48.140;16.304;2023-06-04T08:12:51;99607.00;;;16.19;59.32
69855;BME280;57146;48.140;16.304;2023-06-04T08:15:18;99607.63;;;16.16;58.64
69855;BME280;57146;48.140;16.304;2023-06-04T08:17:46;99615.06;;;16.22;59.38
69855;BME280;57146;48.140;16.304;2023-06-04T08:20:13;99615.63;;;16.28;59.48
69855;BME280;57146;48.140;16.304;2023-06-04T08:22:40;99608.13;;;16.30;59.18
69855;BME280;57146;48.140;16.304;2023-06-04T08:25:07;99612.31;;;16.31;59.51
69855;BME280;57146;48.140;16.304;2023-06-04T08:27:35;99611.19;;;16.32;59.15
69855;BME280;57146;48.140;16.304;2023-06-04T08:30:02;99609.00;;;16.34;58.96
69855;BME280;57146;48.140;16.304;2023-06-04T08:32:29;99607.00;;;16.43;59.24
69855;BME280;57146;48.140;16.304;2023-06-04T08:34:56;99621.63;;;16.49;60.14
69855;BME280;57146;48.140;16.304;2023-06-04T08:37:23;99622.53;;;16.53;59.25
69855;BME280;57146;48.140;16.304;2023-06-04T08:39:50;99629.06;;;16.56;59.24
69855;BME280;57146;48.140;16.304;2023-06-04T08:42:41;99638.72;;;16.61;59.16
69855;BME280;57146;48.140;16.304;2023-06-04T08:45:11;99637.72;;;16.65;59.45
69855;BME280;57146;48.140;16.304;2023-06-04T08:47:46;99637.63;;;16.62;60.68
69855;BME280;57146;48.140;16.304;2023-06-04T08:50:39;99632.78;;;16.76;59.89
69855;BME280;57146;48.140;16.304;2023-06-04T08:53:11;99634.78;;;16.91;60.50
69855;BME280;57146;48.140;16.304;2023-06-04T08:55:38;99635.78;;;16.99;58.83
69855;BME280;57146;48.140;16.304;2023-06-04T08:58:05;99638.22;;;17.04;59.60
69855;BME280;57146;48.140;16.304;2023-06-04T09:00:32;99639.31;;;17.03;59.84
69855;BME280;57146;48.140;16.304;2023-06-04T09:03:01;99638.88;;;17.13;60.00
69855;BME280;57146;48.140;16.304;2023-06-04T09:05:29;99639.31;;;17.03;59.43
69855;BME280;57146;48.140;16.304;2023-06-04T09:08:00;99642.31;;;17.02;60.00
69855;BME280;57146;48.140;16.304;2023-06-04T09:10:29;99636.88;;;17.22;59.75
69855;BME280;57146;48.140;16.304;2023-06-04T09:13:01;99636.03;;;17.46;58.48
69855;BME280;57146;48.140;16.304;2023-06-04T09:15:28;99639.78;;;17.58;57.66
69855;BME280;57146;48.140;16.304;2023-06-04T09:17:55;99642.75;;;17.81;58.05
69855;BME280;57146;48.140;16.304;2023-06-04T09:20:23;99641.72;;;17.85;58.38
69855;BME280;57146;48.140;16.304;2023-06-04T09:22:51;99645.13;;;18.14;58.25
69855;BME280;57146;48.140;16.304;2023-06-04T09:25:43;99644.91;;;18.19;57.93
69855;BME280;57146;48.140;16.304;2023-06-04T09:28:10;99639.75;;;18.26;59.21
69855;BME280;57146;48.140;16.304;2023-06-04T09:30:37;99645.97;;;18.30;58.56
69855;BME280;57146;48.140;16.304;2023-06-04T09:33:09;99639.75;;;18.26;58.14
69855;BME280;57146;48.140;16.304;2023-06-04T09:35:36;99638.31;;;18.29;59.08
69855;BME280;57146;48.140;16.304;2023-06-04T09:38:04;99642.53;;;18.46;57.97
69855;BME280;57146;48.140;16.304;2023-06-04T09:40:37;99644.59;;;18.36;56.48
69855;BME280;57146;48.140;16.304;2023-06-04T09:43:04;99634.63;;;18.33;57.51
69855;BME280;57146;48.140;16.304;2023-06-04T09:45:33;99648.97;;;18.29;58.04
69855;BME280;57146;48.140;16.304;2023-06-04T09:48:01;99642.94;;;18.16;58.41
69855;BME280;57146;48.140;16.304;2023-06-04T09:50:31;99643.66;;;18.29;58.38
69855;BME280;57146;48.140;16.304;2023-06-04T09:52:59;99641.56;;;18.38;58.57
69855;BME280;57146;48.140;16.304;2023-06-04T09:55:27;99644.59;;;18.52;57.84
69855;BME280;57146;48.140;16.304;2023-06-04T09:57:54;99651.41;;;18.65;57.52
69855;BME280;57146;48.140;16.304;2023-06-04T10:00:23;99642.91;;;18.76;56.28
69855;BME280;57146;48.140;16.304;2023-06-04T10:02:56;99647.38;;;18.87;56.58
69855;BME280;57146;48.140;16.304;2023-06-04T10:05:25;99642.88;;;19.07;55.92
69855;BME280;57146;48.140;16.304;2023-06-04T10:07:54;99647.97;;;18.97;55.60
69855;BME280;57146;48.140;16.304;2023-06-04T10:10:25;99648.59;;;18.90;55.48
69855;BME280;57146;48.140;16.304;2023-06-04T10:13:00;99633.53;;;18.98;57.25
69855;BME280;57146;48.140;16.304;2023-06-04T10:15:35;99637.50;;;19.23;56.44
69855;BME280;57146;48.140;16.304;2023-06-04T10:18:05;99632.63;;;19.45;55.95
69855;BME280;57146;48.140;16.304;2023-06-04T10:20:32;99639.50;;;19.46;55.42
69855;BME280;57146;48.140;16.304;2023-06-04T10:23:00;99637.25;;;19.48;55.44
69855;BME280;57146;48.140;16.304;2023-06-04T10:25:29;99629.63;;;19.46;53.86
69855;BME280;57146;48.140;16.304;2023-06-04T10:27:57;99634.75;;;19.55;53.62
69855;BME280;57146;48.140;16.304;2023-06-04T10:30:24;99635.91;;;19.73;53.12
69855;BME280;57146;48.140;16.304;2023-06-04T10:32:53;99644.81;;;19.61;52.21
69855;BME280;57146;48.140;16.304;2023-06-04T10:35:50;99641.22;;;19.54;52.53
69855;BME280;57146;48.140;16.304;2023-06-04T10:38:17;99642.13;;;19.61;52.85
69855;BME280;57146;48.140;16.304;2023-06-04T10:40:44;99635.97;;;19.77;52.57
69855;BME280;57146;48.140;16.304;2023-06-04T10:43:13;99632.38;;;19.69;52.36
69855;BME280;57146;48.140;16.304;2023-06-04T10:45:40;99645.19;;;19.79;52.41
69855;BME280;57146;48.140;16.304;2023-06-04T10:48:11;99630.28;;;19.78;52.43
69855;BME280;57146;48.140;16.304;2023-06-04T10:50:52;99636.72;;;19.77;52.31
69855;BME280;57146;48.140;16.304;2023-06-04T10:53:20;99639.97;;;19.87;52.70
69855;BME280;57146;48.140;16.304;2023-06-04T10:55:50;99636.03;;;20.00;51.33
69855;BME280;57146;48.140;16.304;2023-06-04T10:58:17;99643.19;;;20.15;52.32
69855;BME280;57146;48.140;16.304;2023-06-04T11:01:10;99643.31;;;20.22;50.58
69855;BME280;57146;48.140;16.304;2023-06-04T11:03:37;99644.19;;;20.07;51.89
69855;BME280;57146;48.140;16.304;2023-06-04T11:06:15;99639.31;;;20.13;51.50
69855;BME280;57146;48.140;16.304;2023-06-04T11:08:43;99637.47;;;20.17;51.42
69855;BME280;57146;48.140;16.304;2023-06-04T11:11:12;99640.00;;;20.09;51.04
69855;BME280;57146;48.140;16.304;2023-06-04T11:13:41;99646.94;;;19.91;51.60
69855;BME280;57146;48.140;16.304;2023-06-04T11:16:17;99637.56;;;19.81;51.58
69855;BME280;57146;48.140;16.304;2023-06-04T11:18:56;99642.22;;;19.84;51.52
69855;BME280;57146;48.140;16.304;2023-06-04T11:21:25;99651.19;;;19.57;50.81
69855;BME280;57146;48.140;16.304;2023-06-04T11:24:00;99645.97;;;19.45;52.26
69855;BME280;57146;48.140;16.304;2023-06-04T11:26:35;99640.31;;;19.46;52.58
69855;BME280;57146;48.140;16.304;2023-06-04T11:29:08;99647.44;;;19.42;52.61
69855;BME280;57146;48.140;16.304;2023-06-04T11:34:26;99640.84;;;19.71;52.41
69855;BME280;57146;48.140;16.304;2023-06-04T11:36:54;99640.97;;;19.78;52.33
69855;BME280;57146;48.140;16.304;2023-06-04T11:39:22;99639.84;;;19.79;51.72
69855;BME280;57146;48.140;16.304;2023-06-04T11:41:51;99638.44;;;19.85;52.25
69855;BME280;57146;48.140;16.304;2023-06-04T11:44:20;99642.09;;;19.97;51.16
69855;BME280;57146;48.140;16.304;2023-06-04T11:46:50;99645.16;;;19.99;52.02
69855;BME280;57146;48.140;16.304;2023-06-04T11:49:18;99641.38;;;19.80;52.21
69855;BME280;57146;48.140;16.304;2023-06-04T11:51:50;99643.41;;;19.87;51.64
69855;BME280;57146;48.140;16.304;2023-06-04T11:54:19;99652.69;;;19.74;51.06
69855;BME280;57146;48.140;16.304;2023-06-04T11:56:51;99659.16;;;19.73;51.34
69855;BME280;57146;48.140;16.304;2023-06-04T11:59:19;99651.00;;;19.85;51.74
69855;BME280;57146;48.140;16.304;2023-06-04T12:01:48;99652.47;;;20.02;51.59
69855;BME280;57146;48.140;16.304;2023-06-04T12:04:17;99645.78;;;20.12;50.54
69855;BME280;57146;48.140;16.304;2023-06-04T12:07:00;99655.53;;;20.23;51.29
69855;BME280;57146;48.140;16.304;2023-06-04T12:09:30;99650.63;;;20.25;50.38
69855;BME280;57146;48.140;16.304;2023-06-04T12:12:23;99650.84;;;20.17;51.18
69855;BME280;57146;48.140;16.304;2023-06-04T12:14:57;99645.56;;;20.20;51.67
69855;BME280;57146;48.140;16.304;2023-06-04T12:17:25;99646.47;;;20.28;51.37
69855;BME280;57146;48.140;16.304;2023-06-04T12:20:17;99646.81;;;20.26;50.73
69855;BME280;57146;48.140;16.304;2023-06-04T12:23:19;99656.59;;;20.19;50.49
69855;BME280;57146;48.140;16.304;2023-06-04T12:25:50;99651.97;;;20.16;50.76
69855;BME280;57146;48.140;16.304;2023-06-04T12:28:18;99650.19;;;20.23;49.85
69855;BME280;57146;48.140;16.304;2023-06-04T12:30:45;99657.88;;;20.25;50.58
69855;BME280;57146;48.140;16.304;2023-06-04T12:33:13;99660.81;;;20.20;50.36
69855;BME280;57146;48.140;16.304;2023-06-04T12:35:40;99657.75;;;20.18;50.45
69855;BME280;57146;48.140;16.304;2023-06-04T12:38:07;99647.69;;;20.11;50.66
69855;BME280;57146;48.140;16.304;2023-06-04T12:40:34;99652.91;;;20.04;51.18
69855;BME280;57146;48.140;16.304;2023-06-04T12:43:02;99649.09;;;20.05;52.04
69855;BME280;57146;48.140;16.304;2023-06-04T12:45:30;99643.22;;;19.96;52.23
69855;BME280;57146;48.140;16.304;2023-06-04T12:47:57;99641.31;;;19.96;52.07
69855;BME280;57146;48.140;16.304;2023-06-04T12:50:26;99639.41;;;19.97;52.44
69855;BME280;57146;48.140;16.304;2023-06-04T12:52:55;99639.69;;;19.92;51.83
69855;BME280;57146;48.140;16.304;2023-06-04T12:55:21;99644.63;;;19.90;52.28
69855;BME280;57146;48.140;16.304;2023-06-04T12:57:50;99651.66;;;19.78;52.35
69855;BME280;57146;48.140;16.304;2023-06-04T13:00:17;99639.84;;;19.79;53.28
69855;BME280;57146;48.140;16.304;2023-06-04T13:02:44;99645.75;;;19.89;53.62
69855;BME280;57146;48.140;16.304;2023-06-04T13:05:11;99637.31;;;19.87;53.18
69855;BME280;57146;48.140;16.304;2023-06-04T13:07:39;99639.97;;;19.87;53.59
69855;BME280;57146;48.140;16.304;2023-06-04T13:10:06;99643.09;;;19.89;53.29